Manhattan Regional Airport Manhattan US
ICAO: KMHK
IATA: MHK
Category: Medium
Scheduled Services: Yes

Elevation: 1057 ft
TransAlt. 18000 ft.

Airport Communications:
KANSAS CITY CNTR:127.35
ASOS:119.075
CTAF:118.55
GND:121.85
WICHITA RDO:122.65
TWR:118.55

KMHK Zoom In..

Runways:

(A) RW 03 length 7000 ft width 150 ft
ILS 111.30 / hdg 36

(B) RW 13 length 5000 ft width 75 ft
---- / hdg 138

(C) RW 21 length 7000 ft width 150 ft
---- / hdg 216

(D) RW 31 length 5000 ft width 75 ft
---- / hdg 318

Location; KMHK
Day. 20 / Time. 09.52 Zulu
* Altimeter: 30.38
* Temperature: 02° c. 35.6°f.
* Wind from: 360° Speed 03 kn.
Dewpoint: -02° c.
Visibility: 8 Statute Miles.
Clouds: Clear (automated report).

KMHK 200952Z AUTO 36003KT 8SM CLR 02/M02 A3038 RMK AO2 SLP291 T00221022


Wind From 360°
Speed 03 kn.

  YouTube Music Video
 
jpsmedia.com for Web Design  worldairports.se 2018   terms of use